CheckWX is a tool to help pilots better visualize weather data.  It is not intended as a substitute for an official pre-flight weather briefing.

21:37:18 UTC

OEGN TAF
Jizan Regional Airport
Jizan, Saudi Arabia
TAF OEGN 201100Z 2012/2118 24008G18KT 9999 FEW030

Mar-20@
12:00 UTC

Mar-20 @ 12:00 UTC

Mar-21@
18:00 UTC

Mar-21 @ 18:00 UTC

TAF OEGN 201100Z 2012/2118 24008G18KT 9999 FEW030
Wind
  • 240° at 8 KTS
  • {Gusting to 18 KTS
Cloud Levels
  • Few at 3,000' AGL